createdAt,value
2019-06-10T00:00:43.626Z,2.50
2019-06-10T00:03:11.508Z,2.43
2019-06-10T00:05:37.428Z,2.87
2019-06-10T00:08:04.257Z,2.40
2019-06-10T00:10:31.199Z,2.40
2019-06-10T00:12:57.311Z,2.20
2019-06-10T00:15:23.185Z,2.27
2019-06-10T00:17:59.323Z,2.60
2019-06-10T00:20:16.809Z,2.63
2019-06-10T00:22:42.660Z,3.40
2019-06-10T00:25:08.714Z,2.77
2019-06-10T00:27:34.571Z,2.73
2019-06-10T00:30:02.925Z,2.67
2019-06-10T00:32:28.207Z,3.30
2019-06-10T00:34:54.086Z,2.83
2019-06-10T00:37:21.240Z,3.30
2019-06-10T00:39:47.212Z,3.00
2019-06-10T00:42:15.045Z,2.67
2019-06-10T00:44:41.625Z,2.90
2019-06-10T00:47:09.271Z,2.93
2019-06-10T00:49:35.381Z,3.13
2019-06-10T00:52:03.040Z,2.70
2019-06-10T00:54:31.259Z,2.57
2019-06-10T00:56:56.857Z,3.10
2019-06-10T00:59:22.795Z,2.93
2019-06-10T01:01:50.927Z,2.60
2019-06-10T01:04:16.681Z,2.40
2019-06-10T01:06:42.625Z,2.70
2019-06-10T01:09:08.801Z,2.97
2019-06-10T01:11:36.274Z,3.87
2019-06-10T01:14:03.070Z,4.20
2019-06-10T01:16:28.989Z,4.87
2019-06-10T01:18:54.864Z,5.40
2019-06-10T01:21:21.815Z,5.97
2019-06-10T01:23:47.981Z,6.37
2019-06-10T01:26:16.287Z,7.47
2019-06-10T01:28:41.637Z,6.57
2019-06-10T01:31:10.054Z,6.40
2019-06-10T01:33:35.260Z,6.67
2019-06-10T01:36:01.129Z,5.67
2019-06-10T01:38:27.017Z,5.90
2019-06-10T01:40:52.879Z,5.97
2019-06-10T01:43:21.223Z,5.60
2019-06-10T01:45:46.497Z,5.80
2019-06-10T01:48:14.725Z,6.13
2019-06-10T01:50:40.697Z,5.37
2019-06-10T01:53:07.312Z,5.80
2019-06-10T01:55:33.287Z,5.60
2019-06-10T01:58:00.863Z,4.70
2019-06-10T02:00:31.326Z,4.37
2019-06-10T02:02:57.146Z,4.43
2019-06-10T02:05:23.106Z,4.40
2019-06-10T02:07:48.971Z,3.60
2019-06-10T02:10:17.150Z,3.20
2019-06-10T02:12:42.726Z,3.07
2019-06-10T02:15:10.062Z,2.90
2019-06-10T02:17:36.641Z,3.20
2019-06-10T02:20:05.681Z,3.07
2019-06-10T02:22:31.899Z,3.27
2019-06-10T02:24:57.905Z,3.20
2019-06-10T02:27:23.771Z,2.87
2019-06-10T02:29:50.706Z,3.37
2019-06-10T02:32:21.127Z,2.80
2019-06-10T02:35:01.168Z,2.87
2019-06-10T02:37:15.616Z,2.17
2019-06-10T02:39:43.749Z,2.53
2019-06-10T02:42:09.680Z,2.77
2019-06-10T02:44:37.970Z,3.00
2019-06-10T02:47:03.997Z,2.37
2019-06-10T02:49:51.519Z,2.80
2019-06-10T02:51:57.643Z,2.93
2019-06-10T02:54:29.237Z,2.57
2019-06-10T02:56:53.694Z,2.93
2019-06-10T02:59:21.765Z,2.63
2019-06-10T03:01:46.876Z,3.10
2019-06-10T03:04:13.808Z,2.80
2019-06-10T03:06:41.601Z,2.53
2019-06-10T03:09:07.677Z,3.33
2019-06-10T03:11:37.181Z,2.37
2019-06-10T03:14:02.599Z,2.53
2019-06-10T03:16:32.750Z,3.00
2019-06-10T03:18:58.193Z,2.50
2019-06-10T03:21:25.848Z,2.67
2019-06-10T03:23:53.149Z,2.67
2019-06-10T03:26:19.283Z,2.57
2019-06-10T03:28:45.158Z,2.53
2019-06-10T03:31:15.230Z,2.73
2019-06-10T03:33:42.116Z,3.03
2019-06-10T03:36:06.539Z,3.30
2019-06-10T03:38:32.764Z,3.30
2019-06-10T03:40:58.682Z,2.73
2019-06-10T03:43:26.334Z,2.20
2019-06-10T03:45:53.168Z,2.80
2019-06-10T03:48:19.145Z,2.97
2019-06-10T03:50:45.154Z,3.10
2019-06-10T03:53:12.895Z,2.77
2019-06-10T03:55:38.802Z,3.30
2019-06-10T03:58:07.515Z,2.57
2019-06-10T04:00:36.726Z,2.87
2019-06-10T04:03:02.765Z,2.97
2019-06-10T04:05:28.956Z,3.27
2019-06-10T04:07:54.836Z,3.43
2019-06-10T04:10:23.976Z,3.83
2019-06-10T04:12:48.500Z,3.30
2019-06-10T04:15:14.560Z,2.67
2019-06-10T04:17:42.618Z,2.63
2019-06-10T04:20:12.377Z,2.70
2019-06-10T04:22:36.576Z,2.90
2019-06-10T04:25:04.138Z,2.90
2019-06-10T04:27:29.998Z,2.53
2019-06-10T04:29:56.068Z,2.40
2019-06-10T04:32:23.150Z,3.20
2019-06-10T04:34:49.691Z,2.43
2019-06-10T04:37:15.627Z,2.80
2019-06-10T04:39:42.801Z,2.50
2019-06-10T04:42:08.683Z,2.97
2019-06-10T04:44:34.544Z,2.80
2019-06-10T04:47:02.542Z,4.07
2019-06-10T04:49:28.660Z,3.30
2019-06-10T04:51:55.555Z,2.90
2019-06-10T04:54:23.849Z,3.33
2019-06-10T04:56:49.218Z,2.73
2019-06-10T04:59:15.076Z,2.97
2019-06-10T05:01:42.606Z,3.17
2019-06-10T05:04:08.628Z,3.33
2019-06-10T05:06:34.502Z,2.83
2019-06-10T05:09:00.400Z,2.90
2019-06-10T05:11:27.358Z,3.23
2019-06-10T05:13:54.140Z,3.30
2019-06-10T05:16:23.420Z,3.20
2019-06-10T05:18:47.760Z,3.23
2019-06-10T05:21:13.619Z,3.40
2019-06-10T05:23:39.479Z,3.33
2019-06-10T05:26:05.353Z,3.00
2019-06-10T05:28:33.863Z,3.00
2019-06-10T05:30:58.981Z,3.00
2019-06-10T05:33:26.002Z,3.10
2019-06-10T05:35:52.980Z,3.37
2019-06-10T05:38:18.982Z,2.53
2019-06-10T05:40:44.902Z,3.37
2019-06-10T05:43:12.904Z,3.10
2019-06-10T05:45:38.522Z,2.53
2019-06-10T05:48:04.429Z,2.97
2019-06-10T05:50:31.183Z,2.63
2019-06-10T05:52:58.113Z,3.10
2019-06-10T05:55:24.364Z,2.90
2019-06-10T05:57:53.280Z,3.30
2019-06-10T06:00:19.194Z,2.57
2019-06-10T06:02:45.054Z,3.02
2019-06-10T06:05:12.837Z,2.80
2019-06-10T06:07:38.821Z,2.87
2019-06-10T06:10:06.881Z,2.62
2019-06-10T06:12:34.516Z,2.58
2019-06-10T06:15:02.364Z,2.42
2019-06-10T06:17:28.383Z,2.60
2019-06-10T06:19:54.239Z,2.22
2019-06-10T06:22:22.145Z,2.70
2019-06-10T06:24:47.885Z,2.35
2019-06-10T06:27:13.754Z,2.37
2019-06-10T06:29:39.619Z,2.75
2019-06-10T06:32:05.518Z,2.83
2019-06-10T06:34:33.689Z,2.70
2019-06-10T06:36:59.148Z,2.75
2019-06-10T06:39:25.019Z,2.70
2019-06-10T06:41:52.831Z,2.65
2019-06-10T06:44:18.640Z,2.87
2019-06-10T06:46:44.524Z,2.35
2019-06-10T06:49:12.819Z,3.25
2019-06-10T06:51:54.047Z,2.50
2019-06-10T06:54:06.057Z,3.25
2019-06-10T06:56:35.637Z,2.42
2019-06-10T06:59:02.385Z,3.20
2019-06-10T07:01:27.747Z,2.50
2019-06-10T07:03:53.831Z,3.25
2019-06-10T07:06:22.950Z,3.10
2019-06-10T07:09:03.371Z,2.90
2019-06-10T07:11:17.305Z,2.98
2019-06-10T07:13:45.577Z,2.90
2019-06-10T07:16:13.170Z,2.77
2019-06-10T07:18:43.527Z,3.05
2019-06-10T07:21:06.578Z,2.58
2019-06-10T07:23:35.464Z,2.95
2019-06-10T07:26:02.295Z,2.62
2019-06-10T07:28:28.002Z,2.42
2019-06-10T07:30:55.320Z,3.05
2019-06-10T07:33:22.689Z,2.83
2019-06-10T07:35:48.705Z,2.77
2019-06-10T07:38:14.575Z,2.87
2019-06-10T07:40:45.247Z,2.70
2019-06-10T07:43:08.317Z,2.42
2019-06-10T07:45:37.766Z,2.95
2019-06-10T07:48:02.856Z,2.58
2019-06-10T07:50:28.810Z,2.95
2019-06-10T07:52:54.759Z,3.80
2019-06-10T07:55:22.203Z,3.42
2019-06-10T07:57:48.122Z,2.50
2019-06-10T08:00:14.773Z,2.55
2019-06-10T08:02:44.230Z,3.58
2019-06-10T08:05:08.911Z,3.40
2019-06-10T08:07:35.240Z,3.37
2019-06-10T08:10:03.629Z,2.65
2019-06-10T08:12:29.500Z,2.35
2019-06-10T08:14:55.354Z,3.00
2019-06-10T08:17:22.406Z,2.80
2019-06-10T08:19:50.880Z,2.77
2019-06-10T08:22:29.933Z,2.83
2019-06-10T08:24:45.364Z,3.83
2019-06-10T08:27:12.084Z,3.05
2019-06-10T08:29:38.633Z,3.08
2019-06-10T08:32:04.689Z,2.62
2019-06-10T08:34:32.800Z,2.98
2019-06-10T08:36:58.326Z,3.20
2019-06-10T08:39:24.295Z,3.37
2019-06-10T08:41:52.674Z,2.95
2019-06-10T08:44:18.120Z,3.47
2019-06-10T08:46:46.523Z,3.00
2019-06-10T08:49:12.638Z,3.47
2019-06-10T08:51:39.655Z,3.35
2019-06-10T08:54:05.696Z,3.37
2019-06-10T08:56:32.819Z,3.52
2019-06-10T08:58:59.141Z,3.47
2019-06-10T09:01:25.113Z,3.60
2019-06-10T09:03:53.470Z,3.75
2019-06-10T09:06:18.759Z,3.75
2019-06-10T09:08:47.991Z,3.85
2019-06-10T09:11:13.141Z,3.75
2019-06-10T09:13:39.607Z,3.58
2019-06-10T09:16:15.628Z,3.58
2019-06-10T09:18:34.792Z,3.98
2019-06-10T09:21:02.293Z,3.17
2019-06-10T09:23:28.360Z,3.55
2019-06-10T09:25:57.289Z,3.67
2019-06-10T09:28:23.470Z,4.08
2019-06-10T09:30:56.167Z,3.83
2019-06-10T09:33:17.241Z,4.10
2019-06-10T09:35:46.149Z,4.15
2019-06-10T09:38:10.875Z,4.20
2019-06-10T09:40:48.649Z,3.62
2019-06-10T09:43:12.862Z,4.42
2019-06-10T09:45:40.874Z,3.50
2019-06-10T09:48:06.771Z,3.75
2019-06-10T09:50:41.214Z,4.90
2019-06-10T09:53:07.075Z,4.17
2019-06-10T09:55:33.012Z,3.83
2019-06-10T09:58:00.079Z,3.47
2019-06-10T10:00:42.204Z,3.80
2019-06-10T10:03:08.142Z,4.42
2019-06-10T10:05:34.043Z,4.12
2019-06-10T10:08:00.111Z,4.72
2019-06-10T10:10:37.462Z,3.92
2019-06-10T10:13:07.105Z,4.60
2019-06-10T10:15:34.585Z,4.78
2019-06-10T10:18:02.602Z,3.98
2019-06-10T10:20:28.483Z,4.75
2019-06-10T10:22:55.519Z,4.20
2019-06-10T10:25:23.530Z,4.58
2019-06-10T10:27:51.420Z,3.92
2019-06-10T10:30:24.216Z,4.62
2019-06-10T10:32:50.481Z,4.65
2019-06-10T10:35:16.364Z,4.62
2019-06-10T10:37:42.422Z,4.35
2019-06-10T10:40:08.486Z,4.80
2019-06-10T10:42:45.549Z,4.78
2019-06-10T10:45:04.840Z,5.03
2019-06-10T10:47:33.576Z,4.20
2019-06-10T10:49:58.510Z,3.95
2019-06-10T10:52:24.364Z,4.92
2019-06-10T10:54:51.875Z,4.22
2019-06-10T10:57:18.014Z,4.85
2019-06-10T10:59:45.108Z,4.55
2019-06-10T11:02:12.695Z,4.47
2019-06-10T11:04:44.155Z,4.83
2019-06-10T11:07:12.825Z,5.60
2019-06-10T11:09:37.989Z,4.90
2019-06-10T11:12:03.862Z,4.28
2019-06-10T11:14:30.126Z,5.20
2019-06-10T11:16:58.461Z,5.40
2019-06-10T11:19:23.877Z,4.30
2019-06-10T11:21:49.744Z,4.90
2019-06-10T11:24:32.481Z,4.37
2019-06-10T11:26:43.402Z,3.92
2019-06-10T11:29:09.239Z,4.53
2019-06-10T11:31:35.113Z,4.45
2019-06-10T11:34:02.983Z,4.22
2019-06-10T11:36:28.789Z,5.08
2019-06-10T11:38:56.744Z,4.20
2019-06-10T11:41:23.619Z,4.08
2019-06-10T11:43:51.175Z,4.55
2019-06-10T11:46:17.512Z,5.00
2019-06-10T11:48:44.404Z,4.50
2019-06-10T11:51:12.719Z,5.10
2019-06-10T11:53:38.236Z,5.17
2019-06-10T11:56:04.099Z,4.75
2019-06-10T11:58:29.999Z,5.22
2019-06-10T12:00:58.784Z,4.80
2019-06-10T12:03:23.575Z,4.22
2019-06-10T12:05:53.400Z,4.90
2019-06-10T12:08:17.220Z,4.42
2019-06-10T12:10:43.470Z,4.50
2019-06-10T12:13:10.274Z,4.22
2019-06-10T12:18:03.836Z,5.42
2019-06-10T12:20:28.398Z,5.10
2019-06-10T12:22:57.911Z,4.95
2019-06-10T12:25:32.578Z,5.95
2019-06-10T12:27:50.447Z,5.42
2019-06-10T12:30:17.206Z,5.35
2019-06-10T12:32:43.073Z,4.90
2019-06-10T12:35:13.528Z,6.85
2019-06-10T12:37:38.543Z,6.08
2019-06-10T12:40:09.215Z,6.05
2019-06-10T12:42:35.093Z,5.95
2019-06-10T12:45:05.324Z,5.12
2019-06-10T12:47:28.867Z,5.65
2019-06-10T12:49:56.163Z,6.10
2019-06-10T12:52:22.966Z,6.50
2019-06-10T12:54:48.875Z,6.28
2019-06-10T12:57:16.466Z,6.17
2019-06-10T12:59:42.999Z,6.78
2019-06-10T13:02:18.987Z,6.40
2019-06-10T13:04:37.538Z,7.20
2019-06-10T13:07:05.735Z,6.08
2019-06-10T13:09:32.870Z,5.83
2019-06-10T13:11:59.808Z,6.30
2019-06-10T13:14:25.701Z,6.97
2019-06-10T13:16:52.619Z,6.60
2019-06-10T13:19:18.741Z,5.85
2019-06-10T13:21:44.618Z,5.70
2019-06-10T13:24:12.901Z,6.30
2019-06-10T13:26:38.250Z,6.58
2019-06-10T13:29:07.007Z,5.87
2019-06-10T13:31:33.664Z,5.33
2019-06-10T13:34:05.050Z,6.00
2019-06-10T13:36:27.503Z,5.97
2019-06-10T13:38:53.437Z,5.03
2019-06-10T13:41:19.246Z,5.20
2019-06-10T13:43:45.113Z,5.35
2019-06-10T13:46:11.176Z,4.70
2019-06-10T13:48:37.037Z,4.78
2019-06-10T13:51:08.266Z,5.28
2019-06-10T13:53:30.894Z,4.25
2019-06-10T13:56:14.677Z,5.78
2019-06-10T13:58:25.085Z,5.12
2019-06-10T14:00:53.648Z,5.05
2019-06-10T14:03:18.851Z,4.80
2019-06-10T14:05:45.237Z,4.53
2019-06-10T14:08:15.078Z,4.55
2019-06-10T14:10:39.060Z,5.33
2019-06-10T14:13:10.571Z,5.45
2019-06-10T14:15:35.985Z,5.00
2019-06-10T14:18:05.163Z,5.20
2019-06-10T14:20:29.623Z,6.62
2019-06-10T14:22:55.478Z,5.40
2019-06-10T14:25:23.295Z,4.60
2019-06-10T14:27:49.102Z,4.10
2019-06-10T14:30:16.158Z,4.97
2019-06-10T14:32:42.616Z,3.72
2019-06-10T14:35:10.885Z,4.15
2019-06-10T14:37:39.351Z,4.05
2019-06-10T14:40:07.065Z,4.72
2019-06-10T14:42:33.319Z,4.33
2019-06-10T14:44:59.170Z,4.95
2019-06-10T14:47:25.021Z,4.90
2019-06-10T14:49:52.998Z,5.40
2019-06-10T14:52:18.650Z,5.70
2019-06-10T14:54:48.506Z,5.12
2019-06-10T14:57:15.485Z,5.92
2019-06-10T14:59:42.622Z,5.65
2019-06-10T15:02:09.762Z,5.08
2019-06-10T15:04:36.239Z,5.00
2019-06-10T15:07:03.348Z,5.20
2019-06-10T15:09:29.774Z,5.00
2019-06-10T15:11:55.650Z,5.60
2019-06-10T15:14:23.297Z,7.10
2019-06-10T15:16:49.434Z,4.80
2019-06-10T15:19:21.913Z,5.42
2019-06-10T15:21:43.501Z,5.62
2019-06-10T15:24:09.885Z,4.92
2019-06-10T15:26:35.817Z,5.12
2019-06-10T15:29:02.728Z,5.60
2019-06-10T15:31:28.865Z,5.80
2019-06-10T15:33:54.732Z,7.15
2019-06-10T15:36:20.604Z,6.40
2019-06-10T15:38:46.474Z,5.78
2019-06-10T15:41:16.056Z,5.85
2019-06-10T15:43:42.248Z,5.65
2019-06-10T15:46:07.902Z,5.42
2019-06-10T15:48:33.772Z,6.05
2019-06-10T15:50:59.633Z,6.00
2019-06-10T15:53:25.998Z,5.10
2019-06-10T15:58:21.136Z,4.87
2019-06-10T16:00:47.579Z,7.17
2019-06-10T16:03:15.878Z,6.08
2019-06-10T16:05:42.741Z,7.78
2019-06-10T16:08:08.677Z,6.60
2019-06-10T16:10:34.537Z,6.58
2019-06-10T16:13:03.228Z,7.45
2019-06-10T16:15:28.285Z,7.10
2019-06-10T16:17:54.153Z,7.33
2019-06-10T16:20:21.367Z,8.25
2019-06-10T16:22:52.343Z,7.53
2019-06-10T16:25:18.372Z,7.35
2019-06-10T16:27:50.731Z,7.25
2019-06-10T16:30:13.117Z,7.15
2019-06-10T16:32:40.049Z,6.83
2019-06-10T16:35:06.394Z,6.83
2019-06-10T16:37:32.770Z,7.22
2019-06-10T16:39:58.737Z,6.33
2019-06-10T16:42:26.185Z,6.90
2019-06-10T16:44:52.836Z,7.08
2019-06-10T16:47:19.102Z,6.90
2019-06-10T16:49:45.121Z,6.55
2019-06-10T16:52:12.143Z,6.83
2019-06-10T16:54:38.128Z,6.35
2019-06-10T16:57:04.034Z,6.35
2019-06-10T16:59:30.834Z,6.25
2019-06-10T17:01:57.686Z,5.72
2019-06-10T17:04:24.594Z,6.20
2019-06-10T17:06:52.595Z,6.08
2019-06-10T17:09:18.622Z,6.78
2019-06-10T17:11:44.454Z,5.85
2019-06-10T17:14:12.499Z,8.03
2019-06-10T17:16:40.577Z,7.20
2019-06-10T17:19:05.877Z,7.47
2019-06-10T17:21:34.595Z,8.10
2019-06-10T17:24:03.258Z,7.85
2019-06-10T17:26:33.461Z,6.20
2019-06-10T17:28:55.946Z,7.70
2019-06-10T17:31:25.739Z,7.35
2019-06-10T17:33:49.580Z,7.72
2019-06-10T17:36:15.536Z,7.28
2019-06-10T17:38:42.990Z,6.55
2019-06-10T17:41:09.563Z,6.90
2019-06-10T17:43:35.421Z,5.65
2019-06-10T17:46:03.401Z,8.63
2019-06-10T17:48:29.279Z,9.63
2019-06-10T17:50:55.448Z,7.12
2019-06-10T17:53:22.258Z,7.03
2019-06-10T17:55:48.379Z,7.17
2019-06-10T17:58:14.247Z,8.05
2019-06-10T18:00:42.235Z,8.03
2019-06-10T18:03:07.867Z,8.58
2019-06-10T18:05:33.740Z,8.23
2019-06-10T18:08:02.163Z,7.50
2019-06-10T18:10:27.722Z,8.98
2019-06-10T18:12:53.673Z,8.05
2019-06-10T18:15:22.083Z,9.85
2019-06-10T18:17:47.431Z,9.55
2019-06-10T18:20:15.420Z,9.58
2019-06-10T18:22:41.388Z,10.80
2019-06-10T18:25:07.352Z,10.95
2019-06-10T18:27:34.107Z,12.90
2019-06-10T18:30:02.486Z,11.18
2019-06-10T18:32:29.704Z,13.40
2019-06-10T18:34:56.615Z,13.78
2019-06-10T18:37:22.823Z,12.45
2019-06-10T18:39:48.814Z,12.98
2019-06-10T18:42:14.708Z,13.75
2019-06-10T18:44:40.547Z,13.88
2019-06-10T18:47:06.394Z,13.15
2019-06-10T18:49:34.027Z,11.35
2019-06-10T18:52:00.030Z,9.45
2019-06-10T18:54:25.881Z,8.30
2019-06-10T18:56:52.610Z,6.80
2019-06-10T18:59:21.295Z,6.83
2019-06-10T19:01:46.303Z,6.33
2019-06-10T19:04:12.980Z,5.80
2019-06-10T19:06:39.888Z,4.47
2019-06-10T19:09:06.810Z,4.58
2019-06-10T19:11:34.119Z,4.37
2019-06-10T19:14:03.164Z,3.30
2019-06-10T19:16:29.672Z,3.22
2019-06-10T19:18:55.614Z,3.20
2019-06-10T19:21:21.486Z,2.90
2019-06-10T19:23:47.592Z,2.42
2019-06-10T19:26:13.885Z,2.65
2019-06-10T19:28:41.240Z,3.80
2019-06-10T19:31:07.723Z,2.72
2019-06-10T19:33:35.737Z,2.47
2019-06-10T19:36:02.227Z,2.60
2019-06-10T19:38:28.310Z,3.10
2019-06-10T19:40:54.288Z,3.10
2019-06-10T19:43:20.292Z,3.60
2019-06-10T19:45:46.900Z,3.60
2019-06-10T19:48:12.938Z,3.52
2019-06-10T19:50:39.449Z,4.28
2019-06-10T19:53:06.615Z,4.25
2019-06-10T19:55:33.723Z,4.17
2019-06-10T19:58:03.483Z,4.17
2019-06-10T20:00:28.051Z,5.17
2019-06-10T20:02:53.927Z,4.60
2019-06-10T20:05:19.873Z,4.90
2019-06-10T20:07:50.101Z,4.83
2019-06-10T20:10:13.904Z,4.55
2019-06-10T20:12:41.050Z,5.15
2019-06-10T20:15:24.326Z,5.15
2019-06-10T20:17:52.545Z,5.25
2019-06-10T20:20:19.118Z,5.50
2019-06-10T20:22:46.669Z,5.25
2019-06-10T20:25:14.398Z,5.17
2019-06-10T20:27:42.836Z,5.37
2019-06-10T20:30:21.596Z,5.17
2019-06-10T20:32:37.148Z,5.50
2019-06-10T20:35:05.003Z,5.42
2019-06-10T20:37:32.645Z,5.72
2019-06-10T20:39:58.502Z,5.42
2019-06-10T20:42:24.355Z,5.75
2019-06-10T20:44:50.226Z,6.53
2019-06-10T20:47:16.082Z,6.37
2019-06-10T20:49:44.556Z,6.78
2019-06-10T20:52:12.331Z,6.42
2019-06-10T20:54:38.261Z,6.97
2019-06-10T20:57:04.392Z,5.83
2019-06-10T20:59:33.097Z,6.10
2019-06-10T21:01:57.975Z,6.05
2019-06-10T21:04:23.837Z,5.47
2019-06-10T21:06:53.145Z,5.50
2019-06-10T21:09:22.436Z,6.80
2019-06-10T21:11:48.593Z,5.85
2019-06-10T21:14:15.680Z,6.87
2019-06-10T21:16:42.024Z,6.15
2019-06-10T21:19:08.031Z,6.03
2019-06-10T21:21:33.892Z,5.72
2019-06-10T21:24:02.078Z,5.70
2019-06-10T21:26:27.571Z,4.87
2019-06-10T21:28:55.057Z,5.87
2019-06-10T21:31:21.225Z,6.10
2019-06-10T21:33:49.074Z,6.08
2019-06-10T21:36:14.875Z,6.17
2019-06-10T21:38:43.870Z,6.47
2019-06-10T21:41:08.498Z,6.70
2019-06-10T21:43:34.364Z,5.87
2019-06-10T21:46:00.239Z,6.50
2019-06-10T21:48:26.105Z,7.53
2019-06-10T21:50:55.811Z,8.30
2019-06-10T21:53:22.168Z,7.97
2019-06-10T21:55:48.699Z,8.63
2019-06-10T21:58:14.635Z,7.75
2019-06-10T22:00:55.590Z,6.90
2019-06-10T22:03:12.873Z,7.80
2019-06-10T22:05:38.727Z,7.10
2019-06-10T22:08:04.612Z,8.18
2019-06-10T22:10:30.463Z,8.50
2019-06-10T22:12:56.335Z,7.95
2019-06-10T22:15:22.632Z,7.15
2019-06-10T22:17:48.542Z,7.95
2019-06-10T22:20:14.495Z,9.55
2019-06-10T22:22:42.706Z,8.23
2019-06-10T22:25:08.432Z,8.55
2019-06-10T22:27:34.278Z,9.45
2019-06-10T22:30:02.710Z,8.23
2019-06-10T22:32:27.937Z,7.60
2019-06-10T22:34:55.509Z,8.35
2019-06-10T22:37:23.668Z,8.90
2019-06-10T22:39:50.034Z,8.80
2019-06-10T22:42:15.880Z,8.83
2019-06-10T22:44:42.377Z,9.20
2019-06-10T22:47:08.436Z,8.48
2019-06-10T22:49:34.285Z,9.10
2019-06-10T22:52:00.436Z,8.85
2019-06-10T22:54:26.472Z,9.33
2019-06-10T22:56:56.226Z,8.90
2019-06-10T22:59:20.099Z,8.70
2019-06-10T23:01:45.971Z,9.75
2019-06-10T23:04:13.494Z,9.43
2019-06-10T23:06:39.491Z,9.73
2019-06-10T23:09:05.651Z,9.33
2019-06-10T23:11:32.305Z,9.25
2019-06-10T23:13:59.564Z,8.05
2019-06-10T23:16:25.511Z,8.75
2019-06-10T23:18:53.592Z,9.90
2019-06-10T23:21:19.126Z,10.75
2019-06-10T23:23:44.984Z,10.45
2019-06-10T23:26:12.957Z,10.98
2019-06-10T23:28:38.605Z,9.80
2019-06-10T23:31:05.457Z,11.65
2019-06-10T23:33:32.407Z,9.80
2019-06-10T23:35:58.756Z,9.80
2019-06-10T23:38:24.670Z,9.90
2019-06-10T23:40:52.514Z,9.83
2019-06-10T23:43:18.962Z,9.60
2019-06-10T23:45:44.837Z,11.12
2019-06-10T23:48:13.185Z,11.70
2019-06-10T23:50:38.475Z,10.63
2019-06-10T23:53:07.539Z,12.63
2019-06-10T23:55:32.095Z,11.43
2019-06-10T23:57:58.366Z,10.63
